Wayne Bethel — WDH9869 — position and weather

sailwx.info

Track history (hours):
 
Tides and Currents Weather Stations Pressure Air Temp Water Temp Dewpoint Dewpoint Depression Visibility Wind Speed Wind Dir Waves Ship Positions

Wayne Bethel

Owner: Kirby Inland Marine LP, Houston, TX. More information available from US FCC via Universal Licensing System and Coast Guard Vessel Documentation Center.

Last reported at 2017-Oct-18 23:53 UTC. Time now 2017-Oct-20 04:52 UTC.
Position N 29°46' W 095°05'.

Length 27 m.

Type: . MMSI: 367672380.

Date/timePositionNaut miles runAvg speedWind from/ knotsBaromVisibWave heightAir tempDewpointWater temp
2017-Oct-18 23:53N 29°46' W 095°05'1 1.0
2017-Oct-18 22:49N 29°46' W 095°04'0 0.0
2017-Oct-18 22:22N 29°46' W 095°04'0 0.3
2017-Oct-18 21:50N 29°46' W 095°04'0 0.5
2017-Oct-18 21:26N 29°46' W 095°04'1 0.2
2017-Oct-18 13:12N 29°46' W 095°06'0 0.0
2017-Oct-18 13:00N 29°46' W 095°06'0 0.0
2017-Oct-18 12:28N 29°46' W 095°06'0 0.0
2017-Oct-18 11:58N 29°46' W 095°06'0 0.0
2017-Oct-18 11:28N 29°46' W 095°06'0 0.0
2017-Oct-18 10:49N 29°46' W 095°06'0 0.0
2017-Oct-18 10:25N 29°46' W 095°06'0 0.0
2017-Oct-18 09:47N 29°46' W 095°06'0 0.0
2017-Oct-18 08:54N 29°46' W 095°06'0 0.0
2017-Oct-18 06:58N 29°46' W 095°06'0 0.0
2017-Oct-18 06:24N 29°46' W 095°06'0 0.0
2017-Oct-18 05:57N 29°46' W 095°06'0 0.0
2017-Oct-18 05:30N 29°46' W 095°06'0 0.0
2017-Oct-18 05:00N 29°46' W 095°06'0 0.0
2017-Oct-18 04:30N 29°46' W 095°06'0 0.0
2017-Oct-18 04:00N 29°46' W 095°06'0 0.0
2017-Oct-18 03:30N 29°46' W 095°06'0 0.0
2017-Oct-18 03:00N 29°46' W 095°06'0 0.0
2017-Oct-18 02:24N 29°46' W 095°06'0 0.0
2017-Oct-18 02:00N 29°46' W 095°06'0 0.0
2017-Oct-18 01:18N 29°46' W 095°06'0 0.0
2017-Oct-18 01:00N 29°46' W 095°06'0 0.1
2017-Oct-17 19:07N 29°46' W 095°05'0 0.8
2017-Oct-17 18:43N 29°46' W 095°05'2 5.9
2017-Oct-17 18:28N 29°44' W 095°07'4 6.0
2017-Oct-17 17:47N 29°45' W 095°11'2 6.6
2017-Oct-17 17:29N 29°43' W 095°13'0 0.7
2017-Oct-17 16:59N 29°44' W 095°13'2 4.1
2017-Oct-17 16:29N 29°45' W 095°11'4 6.1
2017-Oct-17 15:55N 29°44' W 095°07'2 0.5
2017-Oct-17 12:12N 29°46' W 095°06'0 1.5
2017-Oct-17 12:00N 29°46' W 095°06'0 0.1
2017-Oct-17 11:30N 29°46' W 095°06'0 0.0
2017-Oct-17 10:59N 29°45' W 095°06'0 0.1
2017-Oct-17 10:21N 29°46' W 095°06'0 0.0
2017-Oct-17 09:57N 29°46' W 095°06'0 0.0
2017-Oct-17 08:36N 29°46' W 095°06'0 0.0
2017-Oct-17 08:30N 29°46' W 095°06'0 0.0
2017-Oct-17 06:00N 29°46' W 095°06'0 0.0
2017-Oct-17 04:54N 29°46' W 095°06'0 0.0
2017-Oct-17 03:48N 29°46' W 095°06'0 0.0
2017-Oct-17 02:18N 29°46' W 095°06'0 0.0
2017-Oct-17 02:00N 29°46' W 095°06'1 0.1
2017-Oct-16 16:49N 29°45' W 095°06'1 0.0
2017-Oct-16 00:10N 29°45' W 095°06'0 0.3
2017-Oct-15 23:49N 29°46' W 095°06'0 0.8
2017-Oct-15 23:16N 29°46' W 095°05'0 0.0
2017-Oct-15 16:35N 29°46' W 095°05'1 0.1
2017-Oct-15 10:18N 29°45' W 095°06'0 0.1
2017-Oct-15 09:48N 29°45' W 095°06'0 0.0
2017-Oct-14 11:21N 29°46' W 095°05'0 0.1
2017-Oct-14 04:42N 29°45' W 095°06'0 0.0
2017-Oct-14 03:39N 29°45' W 095°06'0 0.0
2017-Oct-14 03:30N 29°45' W 095°06'0 0.0
2017-Oct-14 02:57N 29°45' W 095°06'0 0.0
2017-Oct-14 02:30N 29°45' W 095°06'0 0.0
2017-Oct-13 21:22N 29°46' W 095°05'0 0.1
2017-Oct-13 19:31N 29°46' W 095°05'0 4.1
2017-Oct-13 19:26N 29°46' W 095°06'0 0.4
2017-Oct-13 18:56N 29°45' W 095°06'3 4.0
2017-Oct-13 18:18N 29°44' W 095°08'5 1.4
2017-Oct-13 14:52N 29°44' W 095°14'0 0.0
2017-Oct-13 14:16N 29°44' W 095°14'0 0.0
2017-Oct-13 12:04N 29°44' W 095°14'0 0.0
2017-Oct-13 10:16N 29°44' W 095°14'0 0.0
2017-Oct-13 08:37N 29°44' W 095°14'0 0.0
2017-Oct-13 08:25N 29°44' W 095°14'0 0.0
2017-Oct-13 06:52N 29°44' W 095°14'0 0.0
2017-Oct-13 06:25N 29°44' W 095°14'0 0.0
2017-Oct-13 01:55N 29°44' W 095°14'0 0.0
2017-Oct-13 00:58N 29°44' W 095°14'0 0.0
2017-Oct-13 00:28N 29°44' W 095°14'0 0.0
2017-Oct-12 23:46N 29°44' W 095°14'0 0.0
2017-Oct-12 23:28N 29°44' W 095°14'0 0.0
2017-Oct-12 22:04N 29°44' W 095°14'0 0.0
2017-Oct-12 21:46N 29°44' W 095°14'0 0.0
2017-Oct-12 21:16N 29°44' W 095°14'0 0.0
2017-Oct-12 20:46N 29°44' W 095°14'0 0.0
2017-Oct-12 20:28N 29°44' W 095°14'0 0.0
2017-Oct-12 19:58N 29°44' W 095°14'0 0.0
2017-Oct-12 19:30N 29°44' W 095°14'0 0.2
2017-Oct-12 19:00N 29°44' W 095°14'0 0.0
2017-Oct-12 18:26N 29°44' W 095°14'0 0.4
2017-Oct-12 17:58N 29°43' W 095°13'0 0.0
2017-Oct-12 09:00N 29°43' W 095°13'0 0.0
2017-Oct-12 08:30N 29°43' W 095°13'0 0.0
2017-Oct-12 07:21N 29°43' W 095°13'0 0.0
2017-Oct-12 07:00N 29°43' W 095°13'0 0.0
2017-Oct-12 05:30N 29°43' W 095°13'0 0.0
2017-Oct-12 05:00N 29°43' W 095°13'0 0.0
2017-Oct-12 04:30N 29°43' W 095°13'0 0.0
2017-Oct-12 03:51N 29°43' W 095°13'0 0.0
2017-Oct-12 03:15N 29°44' W 095°13'1 2.5
2017-Oct-12 03:00N 29°44' W 095°13'2 4.7
2017-Oct-12 02:30N 29°45' W 095°10'3 5.0
2017-Oct-12 02:00N 29°44' W 095°08'2 3.9
2017-Oct-12 01:24N 29°46' W 095°06'0 0.0
2017-Oct-11 21:40N 29°46' W 095°06'0 0.0
2017-Oct-11 21:14N 29°46' W 095°06'0 0.0
2017-Oct-11 20:53N 29°46' W 095°06'0 0.0
2017-Oct-11 17:51N 29°46' W 095°06'0 0.0
2017-Oct-10 13:01N 29°46' W 095°05'0 3.3
2017-Oct-10 13:00N 29°46' W 095°05'0 0.1
2017-Oct-10 07:08N 29°46' W 095°06'0 0.0
2017-Oct-09 22:27N 29°46' W 095°06'0 0.0
2017-Oct-09 21:55N 29°46' W 095°06'0 0.1
2017-Oct-09 15:20N 29°46' W 095°05'  
Track history (hours):
 
Tides and Currents Weather Stations Pressure Air Temp Water Temp Dewpoint Dewpoint Depression Visibility Wind Speed Wind Dir Waves Ship Positions

Wayne Bethel

Owner: Kirby Inland Marine LP, Houston, TX. More information available from US FCC via Universal Licensing System and Coast Guard Vessel Documentation Center.

Last reported at 2017-Oct-18 23:53 UTC. Time now 2017-Oct-20 04:52 UTC.
Position N 29°46' W 095°05'.

Length 27 m.

Type: . MMSI: 367672380.

Date/timePositionNaut miles runAvg speedWind from/ knotsBaromVisibWave heightAir tempDewpointWater temp
2017-Oct-18 23:53N 29°46' W 095°05'1 1.0
2017-Oct-18 22:49N 29°46' W 095°04'0 0.0
2017-Oct-18 22:22N 29°46' W 095°04'0 0.3
2017-Oct-18 21:50N 29°46' W 095°04'0 0.5
2017-Oct-18 21:26N 29°46' W 095°04'1 0.2
2017-Oct-18 13:12N 29°46' W 095°06'0 0.0
2017-Oct-18 13:00N 29°46' W 095°06'0 0.0
2017-Oct-18 12:28N 29°46' W 095°06'0 0.0
2017-Oct-18 11:58N 29°46' W 095°06'0 0.0
2017-Oct-18 11:28N 29°46' W 095°06'0 0.0
2017-Oct-18 10:49N 29°46' W 095°06'0 0.0
2017-Oct-18 10:25N 29°46' W 095°06'0 0.0
2017-Oct-18 09:47N 29°46' W 095°06'0 0.0
2017-Oct-18 08:54N 29°46' W 095°06'0 0.0
2017-Oct-18 06:58N 29°46' W 095°06'0 0.0
2017-Oct-18 06:24N 29°46' W 095°06'0 0.0
2017-Oct-18 05:57N 29°46' W 095°06'0 0.0
2017-Oct-18 05:30N 29°46' W 095°06'0 0.0
2017-Oct-18 05:00N 29°46' W 095°06'0 0.0
2017-Oct-18 04:30N 29°46' W 095°06'0 0.0
2017-Oct-18 04:00N 29°46' W 095°06'0 0.0
2017-Oct-18 03:30N 29°46' W 095°06'0 0.0
2017-Oct-18 03:00N 29°46' W 095°06'0 0.0
2017-Oct-18 02:24N 29°46' W 095°06'0 0.0
2017-Oct-18 02:00N 29°46' W 095°06'0 0.0
2017-Oct-18 01:18N 29°46' W 095°06'0 0.0
2017-Oct-18 01:00N 29°46' W 095°06'0 0.1
2017-Oct-17 19:07N 29°46' W 095°05'0 0.8
2017-Oct-17 18:43N 29°46' W 095°05'2 5.9
2017-Oct-17 18:28N 29°44' W 095°07'4 6.0
2017-Oct-17 17:47N 29°45' W 095°11'2 6.6
2017-Oct-17 17:29N 29°43' W 095°13'0 0.7
2017-Oct-17 16:59N 29°44' W 095°13'2 4.1
2017-Oct-17 16:29N 29°45' W 095°11'4 6.1
2017-Oct-17 15:55N 29°44' W 095°07'2 0.5
2017-Oct-17 12:12N 29°46' W 095°06'0 1.5
2017-Oct-17 12:00N 29°46' W 095°06'0 0.1
2017-Oct-17 11:30N 29°46' W 095°06'0 0.0
2017-Oct-17 10:59N 29°45' W 095°06'0 0.1
2017-Oct-17 10:21N 29°46' W 095°06'0 0.0
2017-Oct-17 09:57N 29°46' W 095°06'0 0.0
2017-Oct-17 08:36N 29°46' W 095°06'0 0.0
2017-Oct-17 08:30N 29°46' W 095°06'0 0.0
2017-Oct-17 06:00N 29°46' W 095°06'0 0.0
2017-Oct-17 04:54N 29°46' W 095°06'0 0.0
2017-Oct-17 03:48N 29°46' W 095°06'0 0.0
2017-Oct-17 02:18N 29°46' W 095°06'0 0.0
2017-Oct-17 02:00N 29°46' W 095°06'1 0.1
2017-Oct-16 16:49N 29°45' W 095°06'1 0.0
2017-Oct-16 00:10N 29°45' W 095°06'0 0.3
2017-Oct-15 23:49N 29°46' W 095°06'0 0.8
2017-Oct-15 23:16N 29°46' W 095°05'0 0.0
2017-Oct-15 16:35N 29°46' W 095°05'1 0.1
2017-Oct-15 10:18N 29°45' W 095°06'0 0.1
2017-Oct-15 09:48N 29°45' W 095°06'0 0.0
2017-Oct-14 11:21N 29°46' W 095°05'0 0.1
2017-Oct-14 04:42N 29°45' W 095°06'0 0.0
2017-Oct-14 03:39N 29°45' W 095°06'0 0.0
2017-Oct-14 03:30N 29°45' W 095°06'0 0.0
2017-Oct-14 02:57N 29°45' W 095°06'0 0.0
2017-Oct-14 02:30N 29°45' W 095°06'0 0.0
2017-Oct-13 21:22N 29°46' W 095°05'0 0.1
2017-Oct-13 19:31N 29°46' W 095°05'0 4.1
2017-Oct-13 19:26N 29°46' W 095°06'0 0.4
2017-Oct-13 18:56N 29°45' W 095°06'3 4.0
2017-Oct-13 18:18N 29°44' W 095°08'5 1.4
2017-Oct-13 14:52N 29°44' W 095°14'0 0.0
2017-Oct-13 14:16N 29°44' W 095°14'0 0.0
2017-Oct-13 12:04N 29°44' W 095°14'0 0.0
2017-Oct-13 10:16N 29°44' W 095°14'0 0.0
2017-Oct-13 08:37N 29°44' W 095°14'0 0.0
2017-Oct-13 08:25N 29°44' W 095°14'0 0.0
2017-Oct-13 06:52N 29°44' W 095°14'0 0.0
2017-Oct-13 06:25N 29°44' W 095°14'0 0.0
2017-Oct-13 01:55N 29°44' W 095°14'0 0.0
2017-Oct-13 00:58N 29°44' W 095°14'0 0.0
2017-Oct-13 00:28N 29°44' W 095°14'0 0.0
2017-Oct-12 23:46N 29°44' W 095°14'0 0.0
2017-Oct-12 23:28N 29°44' W 095°14'0 0.0
2017-Oct-12 22:04N 29°44' W 095°14'0 0.0
2017-Oct-12 21:46N 29°44' W 095°14'0 0.0
2017-Oct-12 21:16N 29°44' W 095°14'0 0.0
2017-Oct-12 20:46N 29°44' W 095°14'0 0.0
2017-Oct-12 20:28N 29°44' W 095°14'0 0.0
2017-Oct-12 19:58N 29°44' W 095°14'0 0.0
2017-Oct-12 19:30N 29°44' W 095°14'0 0.2
2017-Oct-12 19:00N 29°44' W 095°14'0 0.0
2017-Oct-12 18:26N 29°44' W 095°14'0 0.4
2017-Oct-12 17:58N 29°43' W 095°13'0 0.0
2017-Oct-12 09:00N 29°43' W 095°13'0 0.0
2017-Oct-12 08:30N 29°43' W 095°13'0 0.0
2017-Oct-12 07:21N 29°43' W 095°13'0 0.0
2017-Oct-12 07:00N 29°43' W 095°13'0 0.0
2017-Oct-12 05:30N 29°43' W 095°13'0 0.0
2017-Oct-12 05:00N 29°43' W 095°13'0 0.0
2017-Oct-12 04:30N 29°43' W 095°13'0 0.0
2017-Oct-12 03:51N 29°43' W 095°13'0 0.0
2017-Oct-12 03:15N 29°44' W 095°13'1 2.5
2017-Oct-12 03:00N 29°44' W 095°13'2 4.7
2017-Oct-12 02:30N 29°45' W 095°10'3 5.0
2017-Oct-12 02:00N 29°44' W 095°08'2 3.9
2017-Oct-12 01:24N 29°46' W 095°06'0 0.0
2017-Oct-11 21:40N 29°46' W 095°06'0 0.0
2017-Oct-11 21:14N 29°46' W 095°06'0 0.0
2017-Oct-11 20:53N 29°46' W 095°06'0 0.0
2017-Oct-11 17:51N 29°46' W 095°06'0 0.0
2017-Oct-10 13:01N 29°46' W 095°05'0 3.3
2017-Oct-10 13:00N 29°46' W 095°05'0 0.1
2017-Oct-10 07:08N 29°46' W 095°06'0 0.0
2017-Oct-09 22:27N 29°46' W 095°06'0 0.0
2017-Oct-09 21:55N 29°46' W 095°06'0 0.1
2017-Oct-09 15:20N 29°46' W 095°05'  

Dump ship's entire track history